INFORMAÇÕES DO AERODROMO
Icao Aerodromo ELLX Nome do Aerodromo Luxembourg-Findel International Airport Cidade Luxembourg
Código GPS ELLX Elevação Média 1234 ft Tipo de Aerodromo Aeroporto Grande Porte

INFORMAÇÃO DE PISTA
Pista 06 Comprimento da Pista 13123 ft Largura da Pista 197 ft
Elevação da Pista 1158 ft Distância de Area de Escape da Pista 0 ft Orientação da Pista 60
Pista 24 Comprimento da Pista 13123 ft Largura da Pista 197 ft
Elevação da Pista 1214 ft Distância de Area de Escape da Pista 0 ft Orientação da Pista 240

FREQUÊNCIAS DO AERODROMO
Tipo APP Nome APP Frequência 118.9 MHZ
Tipo ATIS Nome ATIS Frequência 135.55 MHZ
Tipo TWR Nome TWR Frequência 118.1 MHZ

INFORMAÇÕES DE NAVEGAÇÃO PRÓXIMO AO AERODROMO
Tipo NDB Nome Luxembourg Frequência 369 KHZ
Tipo VOR-DME Nome Luxembourg Frequência 112250 KHZ
Tipo NDB Nome Luxembourg Frequência 346 KHZ

Informações de Meteorologia(METAR atual)
METAR DE ELLX
ADDS - METARS form results

(0605 UTC 16 October 2018)
Data provider http://aviationweather.gov/metar/data/
 
METAR text: ELLX 160550Z 04006KT CAVOK 13/08 Q1018 NOSIG
Conditions at: ELLX (LUXEMBOURG (AUT), LU) observed 0550 UTC 16 October 2018
Temperature: 13.0°C (55°F)
Dewpoint: 8.0°C (46°F) [RH = 72%]
Pressure (altimeter): 30.06 inches Hg (1018.0 mb)
Winds: from the NE (40 degrees) at 7 MPH (6 knots; 3.1 m/s)
Visibility: 6 or more miles (10+ km)
Ceiling: ceiling and visibility are OK
Clouds: unknown
Weather: no significant weather observed at this time

METAR text: ELLX 160520Z 04009KT CAVOK 14/08 Q1018 NOSIG
Conditions at: ELLX (LUXEMBOURG (AUT), LU) observed 0520 UTC 16 October 2018
Temperature: 14.0°C (57°F)
Dewpoint: 8.0°C (46°F) [RH = 67%]
Pressure (altimeter): 30.06 inches Hg (1018.0 mb)
Winds: from the NE (40 degrees) at 10 MPH (9 knots; 4.6 m/s)
Visibility: 6 or more miles (10+ km)
Ceiling: ceiling and visibility are OK
Clouds: unknown
Weather: no significant weather observed at this time

Forecast for: ELLX (LUXEMBOURG (AUT), LU)
Text: TAF ELLX 160500Z 1606/1712 04008KT CAVOK
Forecast period: 0600 UTC 16 October 2018 to 1200 UTC 17 October 2018
Forecast type: FROM: standard forecast or significant change
Winds: from the NE (40 degrees) at 9 MPH (8 knots; 4.1 m/s)
Visibility: 6 or more miles 10+ km)
Ceiling: unknown
Clouds: missing
Weather: NSW  (no significant weather)

MAPA DO AERODROMO


Desenvolvido por Virtual Airlines Manager




Modificado por Servidor Brasil Amigos